Time;durP1;ratioP1;P1;durP2;ratioP2;P2;SDS_P1;SDS_P2;PMS_P1;PMS_P2;Temp;Humidity;BMP_temperature;BMP_pressure;BME280_temperature;BME280_humidity;BME280_pressure;Samples;Min_cycle;Max_cycle;Signal;HPM_P1;HPM_P2
2023/04/23 00:01:29;;;;;;;1.15;0.82;;;19.50;62.50;;;;;;4977164;28;20241;-49
2023/04/23 00:04:01;;;;;;;1.23;0.82;;;19.50;62.50;;;;;;4954791;28;20663;-49
2023/04/23 00:06:32;;;;;;;1.83;0.95;;;19.60;62.50;;;;;;4977960;28;20268;-52
2023/04/23 00:09:03;;;;;;;1.60;0.90;;;19.60;63.20;;;;;;4993116;28;20201;-53
2023/04/23 00:11:36;;;;;;;1.73;1.45;;;19.60;62.50;;;;;;4992118;28;20308;-54
2023/04/23 00:14:07;;;;;;;1.73;1.05;;;19.60;62.50;;;;;;4993231;28;20245;-52
2023/04/23 00:16:38;;;;;;;1.95;1.00;;;19.70;62.50;;;;;;4985832;28;20867;-54
2023/04/23 00:19:09;;;;;;;1.58;1.13;;;19.70;62.50;;;;;;4973881;28;20198;-54
2023/04/23 00:21:39;;;;;;;2.20;1.20;;;19.70;62.50;;;;;;4973195;28;20198;-54
2023/04/23 00:24:10;;;;;;;4.47;1.60;;;19.70;62.60;;;;;;4972923;28;20202;-55
2023/04/23 00:26:43;;;;;;;3.92;2.38;;;19.80;62.60;;;;;;4972481;28;20591;-51
2023/04/23 00:29:15;;;;;;;4.97;2.70;;;19.80;62.60;;;;;;4976250;28;20194;-52
2023/04/23 00:31:45;;;;;;;4.53;1.95;;;19.80;62.60;;;;;;4974567;28;20221;-51
2023/04/23 00:34:16;;;;;;;3.97;1.85;;;19.90;62.60;;;;;;4973563;28;20660;-51
2023/04/23 00:36:47;;;;;;;4.38;1.90;;;19.90;62.60;;;;;;4973694;28;20247;-54
2023/04/23 00:39:17;;;;;;;4.15;1.83;;;19.90;62.60;;;;;;4972936;28;20206;-51
2023/04/23 00:41:51;;;;;;;6.10;2.15;;;20.00;62.70;;;;;;4973887;28;20198;-52
2023/04/23 00:44:21;;;;;;;3.42;1.40;;;20.00;62.60;;;;;;4973220;28;20202;-58
2023/04/23 00:46:53;;;;;;;2.78;0.80;;;20.00;62.50;;;;;;4973022;28;20217;-53
2023/04/23 00:49:25;;;;;;;2.60;1.13;;;20.10;62.30;;;;;;4973139;28;20194;-55
2023/04/23 00:51:55;;;;;;;2.55;1.00;;;20.10;62.10;;;;;;4973529;28;20217;-55
2023/04/23 00:54:26;;;;;;;2.78;1.05;;;20.20;62.30;;;;;;4973468;28;20198;-51
2023/04/23 00:56:59;;;;;;;5.13;0.98;;;20.20;62.40;;;;;;4973567;28;20210;-56
2023/04/23 00:59:30;;;;;;;3.30;0.88;;;20.30;62.30;;;;;;4972952;28;20663;-54
2023/04/23 01:02:01;;;;;;;4.55;1.13;;;20.30;62.20;;;;;;4972488;28;20248;-56
2023/04/23 01:04:33;;;;;;;2.30;0.98;;;20.40;62.30;;;;;;4975355;28;20575;-57
2023/04/23 01:07:04;;;;;;;3.00;1.08;;;20.40;62.40;;;;;;4959459;28;20741;-56
2023/04/23 01:09:35;;;;;;;2.20;1.10;;;20.40;62.30;;;;;;4972798;28;20663;-53
2023/04/23 01:12:08;;;;;;;1.73;0.85;;;20.50;62.40;;;;;;4972662;28;20224;-54
2023/04/23 01:14:40;;;;;;;2.70;1.10;;;20.50;62.30;;;;;;4973321;28;20198;-51
2023/04/23 01:17:10;;;;;;;1.60;0.95;;;20.50;62.30;;;;;;4974504;28;20210;-56
2023/04/23 01:19:42;;;;;;;2.30;0.90;;;20.60;62.30;;;;;;4972614;28;20202;-57
2023/04/23 01:22:15;;;;;;;2.88;1.25;;;20.60;62.30;;;;;;4972843;28;20194;-56
2023/04/23 01:24:46;;;;;;;2.42;0.77;;;20.70;62.30;;;;;;4972502;28;20206;-57
2023/04/23 01:27:18;;;;;;;1.88;1.00;;;20.70;62.30;;;;;;4973143;28;20241;-53
2023/04/23 01:29:50;;;;;;;1.17;0.90;;;20.70;62.30;;;;;;4987816;23;20236;-57
2023/04/23 01:32:22;;;;;;;1.67;0.93;;;20.80;62.30;;;;;;4992006;28;20221;-56
2023/04/23 01:34:54;;;;;;;1.10;0.70;;;20.80;62.30;;;;;;4991918;28;20197;-58
2023/04/23 01:37:28;;;;;;;2.70;1.08;;;20.80;62.30;;;;;;4991087;28;20307;-57
2023/04/23 01:40:02;;;;;;;1.33;1.02;;;20.80;62.40;;;;;;4990821;28;20692;-55
2023/04/23 01:42:33;;;;;;;0.85;0.60;;;20.90;62.40;;;;;;4992469;28;20578;-57
2023/04/23 01:45:08;;;;;;;2.03;0.77;;;20.90;62.40;;;;;;4962620;28;20473;-58
2023/04/23 01:47:38;;;;;;;2.35;1.00;;;20.90;62.30;;;;;;4954424;29;20218;-58
2023/04/23 01:50:10;;;;;;;0.85;0.73;;;21.00;62.30;;;;;;4956143;28;20692;-59
2023/04/23 01:52:43;;;;;;;1.73;0.90;;;21.00;62.30;;;;;;4992968;28;20228;-59
2023/04/23 01:55:14;;;;;;;2.08;0.82;;;21.00;62.20;;;;;;4991911;28;20210;-57
2023/04/23 01:57:45;;;;;;;2.58;0.85;;;21.10;62.10;;;;;;4991522;28;20225;-57
2023/04/23 02:00:16;;;;;;;1.35;0.75;;;21.10;62.10;;;;;;4988457;28;20205;-57
2023/04/23 02:02:47;;;;;;;1.52;0.90;;;21.20;62.00;;;;;;4980972;28;20206;-57
2023/04/23 02:05:19;;;;;;;2.20;1.42;;;21.20;61.90;;;;;;4971903;28;20638;-56
2023/04/23 02:07:53;;;;;;;0.65;0.63;;;21.20;61.90;;;;;;4972299;28;20256;-58
2023/04/23 02:10:24;;;;;;;3.83;0.95;;;21.20;62.00;;;;;;4971839;28;20202;-57
2023/04/23 02:12:55;;;;;;;2.25;0.70;;;21.30;62.00;;;;;;4971848;28;20292;-57
2023/04/23 02:15:25;;;;;;;2.78;1.15;;;21.30;62.00;;;;;;4972362;28;20673;-56
2023/04/23 02:17:56;;;;;;;2.97;0.90;;;21.40;62.10;;;;;;4972257;28;20228;-58
2023/04/23 02:20:27;;;;;;;1.90;0.80;;;21.40;62.10;;;;;;4972597;28;20198;-54
2023/04/23 02:23:00;;;;;;;1.40;0.98;;;21.40;62.00;;;;;;4972567;28;20213;-57
2023/04/23 02:25:30;;;;;;;1.98;0.90;;;21.50;62.10;;;;;;4972260;28;20277;-59
2023/04/23 02:28:05;;;;;;;1.90;0.80;;;21.50;62.00;;;;;;4972298;28;20237;-58
2023/04/23 02:30:35;;;;;;;1.77;0.98;;;21.50;61.90;;;;;;4972486;28;20204;-58
2023/04/23 02:33:06;;;;;;;1.63;0.80;;;21.60;61.80;;;;;;4990419;23;20561;-44
2023/04/23 02:35:37;;;;;;;2.38;1.00;;;21.60;61.80;;;;;;4994810;28;20204;-46
2023/04/23 02:38:09;;;;;;;1.75;0.90;;;21.70;61.70;;;;;;4995537;28;20271;-45
2023/04/23 02:40:40;;;;;;;1.00;0.70;;;21.70;61.60;;;;;;4981077;28;20655;-45
2023/04/23 02:43:11;;;;;;;3.17;1.08;;;21.70;61.60;;;;;;4975297;28;20213;-46
2023/04/23 02:45:41;;;;;;;1.95;1.00;;;21.70;61.60;;;;;;4984353;28;20190;-50
2023/04/23 02:48:12;;;;;;;1.73;0.98;;;21.80;61.60;;;;;;4995304;28;20193;-48
2023/04/23 02:50:42;;;;;;;1.42;0.70;;;21.80;61.60;;;;;;4994991;28;20202;-48
2023/04/23 02:53:15;;;;;;;1.13;0.80;;;21.90;61.60;;;;;;4995295;28;20257;-49
2023/04/23 02:55:46;;;;;;;2.05;1.08;;;21.90;61.60;;;;;;4994866;28;20197;-48
2023/04/23 02:58:16;;;;;;;2.08;0.90;;;22.00;61.50;;;;;;4994970;28;20198;-46
2023/04/23 03:00:47;;;;;;;1.50;0.90;;;22.00;61.50;;;;;;4994150;28;20201;-48
2023/04/23 03:03:17;;;;;;;2.92;1.00;;;22.00;61.40;;;;;;4991035;28;20260;-46
2023/04/23 03:05:48;;;;;;;1.55;0.90;;;22.10;61.40;;;;;;4994341;28;20197;-48
2023/04/23 03:08:21;;;;;;;1.05;0.80;;;22.10;61.30;;;;;;4994067;28;20198;-46
2023/04/23 03:10:51;;;;;;;2.03;0.80;;;22.20;61.40;;;;;;5013152;28;20197;-49
2023/04/23 03:13:22;;;;;;;1.00;0.73;;;22.20;61.30;;;;;;5013705;28;20235;-49
2023/04/23 03:15:53;;;;;;;1.20;0.63;;;22.20;61.20;;;;;;5014148;28;20213;-47
2023/04/23 03:18:24;;;;;;;1.48;0.80;;;22.20;61.10;;;;;;5014485;28;20649;-49
2023/04/23 03:20:55;;;;;;;1.35;0.60;;;22.30;61.00;;;;;;5013178;28;20688;-48
2023/04/23 03:23:27;;;;;;;2.28;0.70;;;22.30;60.90;;;;;;5014327;28;20569;-49
2023/04/23 03:25:58;;;;;;;1.33;0.80;;;22.40;60.80;;;;;;5013962;28;20204;-47
2023/04/23 03:28:28;;;;;;;1.02;0.70;;;22.40;60.60;;;;;;5014377;28;20193;-47
2023/04/23 03:30:59;;;;;;;0.95;0.60;;;22.40;60.60;;;;;;5014971;28;20201;-50
2023/04/23 03:41:22;;;;;;;1.17;0.80;;;22.60;60.30;;;;;;5174929;23;20757;-52
2023/04/23 03:43:57;;;;;;;1.30;0.73;;;22.60;60.20;;;;;;4989732;28;20205;-50
2023/04/23 03:46:29;;;;;;;2.05;0.63;;;22.60;60.10;;;;;;4995426;28;20606;-55
2023/04/23 03:49:00;;;;;;;1.23;0.60;;;22.70;60.10;;;;;;5012248;28;20207;-57
2023/04/23 03:51:30;;;;;;;0.95;0.70;;;22.70;60.00;;;;;;4986124;28;20221;-57
2023/04/23 03:54:01;;;;;;;1.65;0.80;;;22.70;60.00;;;;;;4993067;28;20203;-57
2023/04/23 03:56:33;;;;;;;0.88;0.60;;;22.70;59.90;;;;;;4992859;28;20280;-58
2023/04/23 03:59:04;;;;;;;1.40;0.70;;;22.80;59.90;;;;;;4993935;28;20248;-57
2023/04/23 04:01:35;;;;;;;1.25;0.70;;;22.80;59.80;;;;;;4993792;28;20614;-58
2023/04/23 04:04:05;;;;;;;1.20;0.70;;;22.80;59.80;;;;;;4993130;28;20202;-55
2023/04/23 04:06:36;;;;;;;2.10;0.75;;;22.90;59.70;;;;;;4993967;28;20268;-57
2023/04/23 04:09:07;;;;;;;1.25;0.65;;;22.90;59.70;;;;;;4992855;28;20206;-57
2023/04/23 04:11:39;;;;;;;0.90;0.60;;;22.90;59.60;;;;;;4992887;28;20288;-54
2023/04/23 04:14:10;;;;;;;1.30;0.73;;;22.90;59.50;;;;;;4992836;28;20662;-56
2023/04/23 04:16:41;;;;;;;0.70;0.68;;;23.00;59.50;;;;;;4993526;28;20216;-58
2023/04/23 04:19:11;;;;;;;1.08;0.70;;;23.00;59.50;;;;;;4992356;28;20260;-57
2023/04/23 04:21:42;;;;;;;1.00;0.60;;;23.00;59.40;;;;;;4992326;28;20229;-57
2023/04/23 04:24:13;;;;;;;0.52;0.50;;;23.00;59.20;;;;;;4992471;28;20208;-56
2023/04/23 04:26:46;;;;;;;1.20;0.68;;;23.00;59.20;;;;;;4992697;28;20645;-53
2023/04/23 04:29:17;;;;;;;1.65;0.75;;;23.00;59.20;;;;;;4993528;28;20288;-54
2023/04/23 04:31:47;;;;;;;0.68;0.60;;;23.10;59.20;;;;;;4992429;28;20654;-55
2023/04/23 04:34:18;;;;;;;0.75;0.55;;;23.10;59.20;;;;;;4993774;28;20684;-56
2023/04/23 04:36:50;;;;;;;0.50;0.50;;;23.10;59.20;;;;;;4992679;28;20690;-57
2023/04/23 04:39:20;;;;;;;0.60;0.55;;;23.00;59.10;;;;;;4992919;28;20749;-58
2023/04/23 04:41:53;;;;;;;1.45;0.55;;;23.10;59.20;;;;;;4992696;28;20197;-51
2023/04/23 04:44:24;;;;;;;2.53;0.57;;;23.10;59.10;;;;;;4992500;28;20201;-57
2023/04/23 04:46:54;;;;;;;1.08;0.50;;;23.10;59.00;;;;;;4991551;28;20218;-53
2023/04/23 04:49:25;;;;;;;1.48;0.55;;;23.10;58.90;;;;;;4992480;28;20202;-58
2023/04/23 04:51:56;;;;;;;0.80;0.50;;;23.10;58.90;;;;;;4993097;28;20193;-54
2023/04/23 04:54:27;;;;;;;1.02;0.45;;;23.10;58.80;;;;;;4989976;28;20208;-58
2023/04/23 04:56:59;;;;;;;1.40;0.60;;;23.10;58.60;;;;;;4991878;28;20217;-57
2023/04/23 04:59:30;;;;;;;0.60;0.57;;;23.10;58.50;;;;;;4992631;28;20201;-58
2023/04/23 05:02:01;;;;;;;1.17;0.50;;;23.10;58.60;;;;;;4992619;28;20190;-56
2023/04/23 05:04:31;;;;;;;0.80;0.40;;;23.10;58.60;;;;;;4992620;28;20197;-57
2023/04/23 05:07:02;;;;;;;0.88;0.40;;;23.10;58.50;;;;;;4994428;28;20622;-57
2023/04/23 05:09:32;;;;;;;1.13;0.57;;;23.10;58.40;;;;;;4972829;28;20413;-56
2023/04/23 05:12:06;;;;;;;0.95;0.50;;;23.10;58.30;;;;;;4983979;28;20193;-58
2023/04/23 05:14:36;;;;;;;0.63;0.60;;;23.10;58.20;;;;;;4992068;28;20209;-57
2023/04/23 05:17:07;;;;;;;1.27;0.70;;;23.10;58.20;;;;;;4991874;28;20272;-56
2023/04/23 05:19:38;;;;;;;0.80;0.60;;;23.00;58.10;;;;;;4991667;28;20658;-56
2023/04/23 05:22:08;;;;;;;0.82;0.50;;;23.10;58.10;;;;;;4993650;28;20197;-56
2023/04/23 05:24:39;;;;;;;1.85;0.73;;;23.10;58.30;;;;;;5011437;28;20580;-56
2023/04/23 05:27:11;;;;;;;1.65;0.68;;;23.10;58.20;;;;;;4999100;28;20225;-57
2023/04/23 05:29:42;;;;;;;1.00;0.60;;;23.10;58.20;;;;;;4992770;28;20209;-55
2023/04/23 05:32:22;;;;;;;0.77;0.52;;;23.10;58.20;;;;;;4996597;28;20202;-57
2023/04/23 05:34:53;;;;;;;1.10;0.60;;;23.00;58.10;;;;;;4992244;28;20201;-56
2023/04/23 05:37:23;;;;;;;1.60;0.57;;;23.00;57.80;;;;;;4991517;28;20214;-55
2023/04/23 05:39:54;;;;;;;1.50;0.63;;;23.00;57.60;;;;;;4991978;28;20205;-56
2023/04/23 05:42:27;;;;;;;1.20;0.60;;;23.00;57.60;;;;;;4991436;28;20205;-54
2023/04/23 05:44:58;;;;;;;0.90;0.55;;;23.00;57.60;;;;;;4991326;28;20194;-57
2023/04/23 05:47:28;;;;;;;0.85;0.47;;;23.00;57.60;;;;;;4990672;28;20686;-55
2023/04/23 05:50:00;;;;;;;0.70;0.68;;;23.00;57.30;;;;;;4988369;28;20670;-53
2023/04/23 05:52:32;;;;;;;2.17;0.60;;;23.00;57.30;;;;;;4991157;28;20285;-56
2023/04/23 05:55:03;;;;;;;0.88;0.60;;;23.00;57.00;;;;;;4991234;28;20292;-55
2023/04/23 05:57:35;;;;;;;2.13;0.47;;;23.00;56.80;;;;;;4995935;28;20220;-56
2023/04/23 06:00:08;;;;;;;1.25;0.70;;;23.00;56.70;;;;;;4991048;28;20198;-57
2023/04/23 06:02:39;;;;;;;0.98;0.50;;;22.90;56.50;;;;;;4991191;28;20260;-56
2023/04/23 06:05:10;;;;;;;1.00;0.65;;;22.90;56.30;;;;;;4993727;28;20202;-56
2023/04/23 06:07:41;;;;;;;1.33;0.57;;;22.90;56.20;;;;;;4991449;28;20209;-57
2023/04/23 06:10:12;;;;;;;3.50;0.73;;;22.90;56.30;;;;;;4989763;28;20198;-55
2023/04/23 06:12:45;;;;;;;1.75;0.50;;;22.90;56.40;;;;;;4991090;28;20221;-56
2023/04/23 06:15:15;;;;;;;1.42;0.60;;;22.90;56.40;;;;;;4991503;28;20193;-57
2023/04/23 06:17:46;;;;;;;2.03;0.60;;;22.90;56.60;;;;;;4990468;28;20236;-53
2023/04/23 06:20:16;;;;;;;0.77;0.50;;;22.80;56.50;;;;;;4991008;28;20706;-58
2023/04/23 06:22:47;;;;;;;1.58;0.70;;;22.90;56.60;;;;;;4990533;28;20198;-57
2023/04/23 06:25:18;;;;;;;0.98;0.65;;;22.80;56.50;;;;;;4990311;28;20204;-57
2023/04/23 06:27:50;;;;;;;0.80;0.50;;;22.80;56.40;;;;;;4990656;28;20717;-55
2023/04/23 06:30:21;;;;;;;1.58;0.70;;;22.80;56.30;;;;;;4990467;28;20194;-58
2023/04/23 06:32:51;;;;;;;1.95;0.90;;;22.80;56.30;;;;;;4990154;28;20704;-57
2023/04/23 06:35:22;;;;;;;1.55;1.33;;;22.80;56.30;;;;;;4990416;28;20626;-53
2023/04/23 06:37:53;;;;;;;2.17;1.38;;;22.80;56.10;;;;;;4990442;28;20275;-56
2023/04/23 06:40:23;;;;;;;2.28;2.08;;;22.80;56.00;;;;;;4989971;28;20216;-58
2023/04/23 06:42:56;;;;;;;4.15;2.50;;;22.80;56.00;;;;;;4990827;28;20340;-57
2023/04/23 06:45:27;;;;;;;4.50;2.85;;;22.70;55.80;;;;;;4990145;28;20280;-55
2023/04/23 06:47:57;;;;;;;3.38;3.00;;;22.70;55.80;;;;;;4990252;28;20695;-57
2023/04/23 06:50:28;;;;;;;4.18;3.78;;;22.70;55.80;;;;;;4990252;28;20205;-57
2023/04/23 06:52:59;;;;;;;3.80;3.50;;;22.70;55.70;;;;;;4990303;28;20220;-57
2023/04/23 06:55:30;;;;;;;3.67;3.38;;;22.70;55.70;;;;;;4990519;28;20206;-55
2023/04/23 06:58:02;;;;;;;3.38;3.13;;;22.70;55.80;;;;;;4990697;28;20632;-55
2023/04/23 07:00:33;;;;;;;3.88;3.58;;;22.70;55.80;;;;;;4987709;28;20224;-58
2023/04/23 07:03:03;;;;;;;4.20;3.80;;;22.70;55.80;;;;;;4985438;28;20205;-55
2023/04/23 07:05:34;;;;;;;5.00;4.03;;;22.70;55.80;;;;;;4991066;28;20201;-58
2023/04/23 07:08:05;;;;;;;4.53;4.13;;;22.70;55.80;;;;;;4989958;28;20701;-57
2023/04/23 07:10:35;;;;;;;4.47;4.07;;;22.70;55.80;;;;;;4992542;28;20190;-58
2023/04/23 07:13:08;;;;;;;4.55;4.25;;;22.70;55.70;;;;;;4991005;28;20748;-56
2023/04/23 07:15:38;;;;;;;5.20;4.50;;;22.60;55.40;;;;;;4990856;28;20194;-56
2023/04/23 07:18:09;;;;;;;4.50;4.20;;;22.60;55.40;;;;;;5002234;28;20213;-56
2023/04/23 07:20:40;;;;;;;4.63;4.22;;;22.60;55.30;;;;;;5012434;28;20200;-57
2023/04/23 07:23:11;;;;;;;4.97;4.47;;;22.60;55.30;;;;;;5013845;28;20546;-56
2023/04/23 07:25:42;;;;;;;4.25;3.95;;;22.60;55.20;;;;;;5014025;28;20544;-57
2023/04/23 07:28:14;;;;;;;3.95;3.65;;;22.60;55.20;;;;;;5014297;28;20197;-54
2023/04/23 07:30:45;;;;;;;3.90;3.60;;;22.50;55.10;;;;;;5013859;28;20224;-58
2023/04/23 07:33:16;;;;;;;4.60;4.20;;;22.50;54.90;;;;;;4999763;28;20229;-56
2023/04/23 07:35:46;;;;;;;4.03;3.72;;;22.50;55.00;;;;;;4993830;28;20582;-57
2023/04/23 07:38:17;;;;;;;4.38;3.97;;;22.50;55.00;;;;;;4994197;28;20202;-57
2023/04/23 07:40:48;;;;;;;3.70;3.40;;;22.50;55.00;;;;;;4994142;28;20260;-58
2023/04/23 07:43:20;;;;;;;3.92;3.58;;;22.50;55.10;;;;;;4991852;28;20233;-57
2023/04/23 07:45:51;;;;;;;3.45;3.13;;;22.50;55.20;;;;;;4974504;28;20202;-54
2023/04/23 07:48:21;;;;;;;3.88;3.45;;;22.50;55.30;;;;;;4974909;28;20206;-57
2023/04/23 07:50:52;;;;;;;3.58;3.20;;;22.50;55.30;;;;;;4974843;28;20812;-58
2023/04/23 07:53:23;;;;;;;4.25;3.35;;;22.50;55.10;;;;;;4974624;28;20221;-57
2023/04/23 07:55:54;;;;;;;5.57;3.60;;;22.40;55.00;;;;;;4973334;28;20237;-56
2023/04/23 07:58:27;;;;;;;4.05;3.15;;;22.50;55.00;;;;;;4974548;28;20278;-57
2023/04/23 08:00:58;;;;;;;3.35;3.03;;;22.40;54.90;;;;;;4974712;28;20198;-57
2023/04/23 08:03:29;;;;;;;3.42;3.13;;;22.40;55.00;;;;;;4993834;28;20202;-57
2023/04/23 08:06:00;;;;;;;3.45;3.15;;;22.40;55.00;;;;;;4994241;28;20201;-49
2023/04/23 08:08:30;;;;;;;2.80;2.58;;;22.40;54.90;;;;;;4996155;28;20194;-58
2023/04/23 08:11:01;;;;;;;3.15;2.80;;;22.40;54.90;;;;;;4993679;28;20271;-57
2023/04/23 08:13:34;;;;;;;2.75;2.47;;;22.40;54.80;;;;;;4993461;28;20575;-58
2023/04/23 08:16:05;;;;;;;2.78;2.58;;;22.40;54.80;;;;;;4993654;28;20216;-58
2023/04/23 08:18:36;;;;;;;2.85;2.65;;;22.40;54.80;;;;;;4993861;28;20197;-54
2023/04/23 08:21:07;;;;;;;2.50;2.30;;;22.40;54.90;;;;;;4993815;28;20488;-55
2023/04/23 08:23:37;;;;;;;2.70;2.30;;;22.30;54.90;;;;;;4993724;28;20204;-52
2023/04/23 08:26:09;;;;;;;2.72;2.30;;;22.40;54.90;;;;;;4993703;28;20287;-58
2023/04/23 08:28:41;;;;;;;4.20;2.30;;;22.30;54.90;;;;;;4993080;28;20248;-55
2023/04/23 08:31:12;;;;;;;3.00;2.42;;;22.30;54.90;;;;;;4992520;28;20209;-52
2023/04/23 08:33:43;;;;;;;2.33;2.13;;;22.30;55.00;;;;;;4992876;28;20701;-58
2023/04/23 08:36:14;;;;;;;2.65;2.40;;;22.30;54.90;;;;;;4993113;28;20225;-58
2023/04/23 08:38:44;;;;;;;2.30;2.10;;;22.30;54.80;;;;;;4993434;28;20233;-57
2023/04/23 08:41:20;;;;;;;2.80;2.00;;;22.30;54.70;;;;;;4993391;28;20680;-58
2023/04/23 08:43:57;;;;;;;3.85;2.17;;;22.30;54.70;;;;;;4993325;28;20200;-55
2023/04/23 08:46:30;;;;;;;2.17;1.98;;;22.30;54.80;;;;;;4993498;28;20225;-57
2023/04/23 08:49:04;;;;;;;2.47;2.28;;;22.20;54.70;;;;;;4993358;28;20198;-55
2023/04/23 08:51:38;;;;;;;2.35;1.90;;;22.20;54.70;;;;;;4993171;28;20255;-55
2023/04/23 08:54:12;;;;;;;2.40;2.15;;;22.20;54.70;;;;;;4990276;28;20229;-57
2023/04/23 08:56:44;;;;;;;2.20;1.98;;;22.20;54.70;;;;;;4993551;28;20244;-57
2023/04/23 08:59:17;;;;;;;3.00;1.95;;;22.20;54.70;;;;;;4992555;28;20204;-54
2023/04/23 09:01:47;;;;;;;2.10;1.90;;;22.20;54.80;;;;;;4992531;28;20564;-54
2023/04/23 09:04:19;;;;;;;2.30;2.10;;;22.20;54.80;;;;;;4992662;28;20197;-58
2023/04/23 09:06:50;;;;;;;2.10;2.00;;;22.20;54.90;;;;;;4992729;28;20221;-57
2023/04/23 09:09:22;;;;;;;2.05;1.90;;;22.20;54.90;;;;;;4994153;28;20197;-55
2023/04/23 09:11:53;;;;;;;1.73;1.63;;;22.20;54.90;;;;;;4993301;28;20658;-57
2023/04/23 09:14:26;;;;;;;1.90;1.70;;;22.20;55.00;;;;;;4991839;28;20225;-57
2023/04/23 09:16:56;;;;;;;1.80;1.70;;;22.20;55.00;;;;;;4992864;28;20312;-58
2023/04/23 09:19:29;;;;;;;2.58;1.88;;;22.20;55.00;;;;;;4992804;28;20204;-57
2023/04/23 09:22:00;;;;;;;1.70;1.60;;;22.10;54.80;;;;;;4992362;28;20212;-51
2023/04/23 09:24:31;;;;;;;1.73;1.63;;;22.10;54.60;;;;;;4991704;28;20241;-58
2023/04/23 09:27:02;;;;;;;2.35;1.70;;;22.10;54.70;;;;;;4998824;28;20220;-54
2023/04/23 09:29:35;;;;;;;1.70;1.60;;;22.10;54.60;;;;;;5011945;28;20675;-57
2023/04/23 09:32:10;;;;;;;1.52;1.40;;;22.10;54.70;;;;;;5007446;28;20232;-55
2023/04/23 09:34:41;;;;;;;2.35;1.55;;;22.10;54.60;;;;;;4992769;28;20709;-57
2023/04/23 09:37:13;;;;;;;1.67;1.35;;;22.10;54.50;;;;;;4992381;28;20213;-55
2023/04/23 09:39:44;;;;;;;2.67;1.73;;;22.10;54.60;;;;;;4992564;28;20303;-57
2023/04/23 09:42:17;;;;;;;1.58;1.45;;;22.00;54.60;;;;;;4992018;28;20208;-55
2023/04/23 09:44:59;;;;;;;1.52;1.42;;;22.00;54.70;;;;;;4990884;28;20565;-54
2023/04/23 09:47:30;;;;;;;2.53;1.80;;;22.00;54.80;;;;;;4990646;28;20244;-56
2023/04/23 09:50:00;;;;;;;1.73;1.40;;;22.00;54.80;;;;;;4992285;28;20221;-56
2023/04/23 09:52:34;;;;;;;1.40;1.30;;;22.00;54.80;;;;;;4992236;28;20202;-58
2023/04/23 09:55:05;;;;;;;1.52;1.30;;;22.00;54.90;;;;;;4991526;28;20232;-58
2023/04/23 09:57:38;;;;;;;1.35;1.25;;;22.00;54.90;;;;;;4986712;28;20300;-53
2023/04/23 10:00:21;;;;;;;1.60;1.38;;;22.00;54.90;;;;;;5002822;28;20200;-58
2023/04/23 10:02:52;;;;;;;1.52;1.40;;;22.00;54.90;;;;;;4997694;28;20205;-58
2023/04/23 10:05:24;;;;;;;3.30;1.40;;;22.00;54.80;;;;;;4991939;28;20725;-58
2023/04/23 10:07:55;;;;;;;2.13;1.35;;;22.00;54.80;;;;;;4991727;28;20253;-58
2023/04/23 10:10:26;;;;;;;2.40;1.42;;;22.00;54.80;;;;;;4990620;28;20204;-58
2023/04/23 10:12:57;;;;;;;1.40;1.10;;;22.00;54.80;;;;;;4993653;28;20200;-52
2023/04/23 10:15:30;;;;;;;2.30;1.65;;;21.90;54.70;;;;;;4991550;28;20252;-57
2023/04/23 10:18:00;;;;;;;3.80;1.77;;;21.90;54.70;;;;;;4991253;28;20217;-58
2023/04/23 10:20:31;;;;;;;3.72;1.77;;;21.90;54.60;;;;;;4990462;28;20201;-50
2023/04/23 10:23:03;;;;;;;3.47;2.15;;;21.90;54.60;;;;;;4991227;28;20670;-58
2023/04/23 10:25:35;;;;;;;2.05;1.60;;;21.90;54.70;;;;;;4990830;28;20201;-51
2023/04/23 10:28:10;;;;;;;3.15;2.00;;;21.90;54.70;;;;;;4990753;28;20280;-55
2023/04/23 10:30:43;;;;;;;4.70;2.35;;;21.90;54.70;;;;;;4991815;28;20201;-55
2023/04/23 10:33:15;;;;;;;6.40;3.33;;;21.90;54.70;;;;;;4992181;28;20654;-50
2023/04/23 10:35:46;;;;;;;5.65;2.92;;;21.90;54.70;;;;;;4990689;28;20295;-58
2023/04/23 10:38:17;;;;;;;8.45;3.53;;;21.90;54.60;;;;;;4991252;28;20200;-58
2023/04/23 10:40:50;;;;;;;6.35;3.15;;;21.90;54.70;;;;;;4990038;28;20216;-58
2023/04/23 10:43:22;;;;;;;7.60;2.90;;;21.90;54.80;;;;;;4990794;28;20284;-58
2023/04/23 10:45:55;;;;;;;9.07;3.75;;;21.90;54.80;;;;;;4990686;28;20201;-56
2023/04/23 10:48:25;;;;;;;9.75;3.83;;;21.90;54.60;;;;;;4990934;28;20197;-59
2023/04/23 10:51:01;;;;;;;13.80;3.97;;;21.90;54.50;;;;;;4990980;28;20198;-58
2023/04/23 10:53:34;;;;;;;8.50;3.85;;;21.80;54.40;;;;;;4990770;28;20204;-57
2023/04/23 10:56:12;;;;;;;8.13;3.85;;;21.80;54.30;;;;;;4984386;28;20218;-53
2023/04/23 10:58:52;;;;;;;9.60;4.10;;;21.80;54.20;;;;;;4990570;28;20220;-56
2023/04/23 11:01:27;;;;;;;8.50;4.00;;;21.80;54.20;;;;;;4994648;28;20221;-58
2023/04/23 11:03:59;;;;;;;10.32;4.32;;;21.80;54.20;;;;;;4994868;28;20231;-58
2023/04/23 11:06:54;;;;;;;10.35;3.75;;;21.80;54.30;;;;;;4994359;28;20226;-58
2023/04/23 11:09:41;;;;;;;9.40;3.88;;;21.80;54.30;;;;;;4975299;28;20237;-58
2023/04/23 11:12:14;;;;;;;10.55;3.80;;;21.80;54.30;;;;;;4977350;28;20202;-54
2023/04/23 11:14:50;;;;;;;9.23;3.80;;;21.80;54.40;;;;;;4994577;28;20749;-58
2023/04/23 11:17:46;;;;;;;8.98;3.53;;;21.80;54.30;;;;;;4994420;28;20213;-58
2023/04/23 11:20:20;;;;;;;9.27;3.85;;;21.80;54.30;;;;;;4998338;28;20256;-57
2023/04/23 11:22:51;;;;;;;8.88;3.80;;;21.80;54.40;;;;;;5007575;28;20590;-55
2023/04/23 11:25:23;;;;;;;10.38;4.00;;;21.80;54.40;;;;;;4994322;28;20204;-58
2023/04/23 11:27:55;;;;;;;26.15;6.88;;;21.70;54.40;;;;;;4994508;28;20210;-57
2023/04/23 11:30:26;;;;;;;18.92;6.15;;;21.80;54.80;;;;;;4993833;28;20202;-58
2023/04/23 11:33:00;;;;;;;13.00;4.65;;;21.80;54.30;;;;;;4993910;28;20740;-58
2023/04/23 11:35:38;;;;;;;12.73;5.00;;;21.70;54.80;;;;;;4993769;28;20317;-56
2023/04/23 11:38:11;;;;;;;13.55;5.10;;;21.80;54.30;;;;;;4990151;28;20240;-57
2023/04/23 11:40:42;;;;;;;11.57;4.15;;;21.70;54.20;;;;;;4993513;28;20208;-58
2023/04/23 11:43:13;;;;;;;10.45;4.22;;;21.70;54.10;;;;;;4994017;28;20190;-59
2023/04/23 11:45:44;;;;;;;10.20;4.03;;;21.70;54.10;;;;;;4993587;28;20295;-58
2023/04/23 11:48:16;;;;;;;11.27;4.05;;;21.70;54.20;;;;;;4993552;28;20585;-58
2023/04/23 11:50:48;;;;;;;11.18;4.20;;;21.70;54.30;;;;;;4994407;28;20224;-57
2023/04/23 11:53:18;;;;;;;10.35;4.05;;;21.70;54.40;;;;;;4992981;28;20592;-55
2023/04/23 11:55:52;;;;;;;12.30;4.13;;;21.70;54.40;;;;;;4994279;28;20229;-58
2023/04/23 11:58:22;;;;;;;10.00;3.50;;;21.70;54.50;;;;;;5000333;28;20196;-57
2023/04/23 12:01:01;;;;;;;8.35;4.10;;;21.70;54.50;;;;;;5013719;28;20661;-57
2023/04/23 12:03:33;;;;;;;10.15;3.95;;;21.70;54.60;;;;;;4996493;28;20197;-57
2023/04/23 12:06:04;;;;;;;8.75;3.72;;;21.70;54.60;;;;;;4992849;28;20584;-59
2023/04/23 12:08:39;;;;;;;8.38;3.80;;;21.70;54.60;;;;;;4992740;28;20193;-58
2023/04/23 12:11:09;;;;;;;8.38;3.70;;;21.70;54.60;;;;;;4993383;28;20204;-56
2023/04/23 12:13:42;;;;;;;10.75;3.90;;;21.70;54.60;;;;;;4992895;28;20193;-58
2023/04/23 12:16:13;;;;;;;11.80;4.10;;;21.60;54.50;;;;;;4993603;28;20236;-58
2023/04/23 12:18:45;;;;;;;10.07;3.70;;;21.60;54.50;;;;;;4993523;28;20197;-58
2023/04/23 12:21:17;;;;;;;11.57;3.85;;;21.60;54.50;;;;;;4995918;28;20194;-57
2023/04/23 12:23:52;;;;;;;7.03;3.63;;;21.60;54.50;;;;;;4993050;28;20194;-58
2023/04/23 12:26:23;;;;;;;10.05;3.72;;;21.60;54.50;;;;;;4991929;28;20696;-55
2023/04/23 12:28:58;;;;;;;12.82;3.97;;;21.60;54.50;;;;;;4992502;28;20197;-56
2023/04/23 12:31:30;;;;;;;8.00;3.42;;;21.60;54.60;;;;;;4992502;28;20597;-56
2023/04/23 12:34:05;;;;;;;7.72;3.20;;;21.50;54.60;;;;;;4986706;28;20189;-57
2023/04/23 12:36:37;;;;;;;9.75;4.07;;;21.60;54.70;;;;;;4993334;28;20228;-58
2023/04/23 12:39:28;;;;;;;7.90;3.53;;;21.60;54.80;;;;;;4992838;28;20284;-60
2023/04/23 12:42:01;;;;;;;8.45;3.55;;;21.50;54.70;;;;;;4992558;28;20592;-56
2023/04/23 12:44:33;;;;;;;10.48;4.00;;;21.50;54.70;;;;;;4993048;28;20609;-57
2023/04/23 12:47:06;;;;;;;9.15;3.30;;;21.50;54.80;;;;;;4989372;28;20210;-58
2023/04/23 12:49:40;;;;;;;10.65;3.80;;;21.50;54.80;;;;;;4992768;28;20950;-54
2023/04/23 12:52:11;;;;;;;9.45;3.67;;;21.50;54.80;;;;;;4992582;28;20230;-58
2023/04/23 12:54:43;;;;;;;8.10;3.33;;;21.50;54.80;;;;;;4992323;28;20205;-58
2023/04/23 12:57:15;;;;;;;7.30;3.22;;;21.50;54.80;;;;;;4992676;28;20724;-59
2023/04/23 12:59:45;;;;;;;7.32;3.95;;;21.40;54.70;;;;;;4994400;28;20319;-59
2023/04/23 13:02:16;;;;;;;9.23;3.50;;;21.50;54.80;;;;;;4992423;28;20197;-55
2023/04/23 13:04:49;;;;;;;9.02;3.25;;;21.40;54.70;;;;;;4993002;28;20577;-53
2023/04/23 13:07:20;;;;;;;10.02;3.38;;;21.40;54.70;;;;;;4992323;28;20616;-54
2023/04/23 13:09:51;;;;;;;11.45;3.85;;;21.40;54.80;;;;;;4992343;28;20255;-51
2023/04/23 13:12:21;;;;;;;8.00;3.45;;;21.40;54.80;;;;;;4992709;28;20720;-55
2023/04/23 13:14:52;;;;;;;6.63;3.40;;;21.40;54.80;;;;;;4992681;28;20197;-55
2023/04/23 13:17:25;;;;;;;6.65;2.75;;;21.40;54.90;;;;;;5009724;28;20263;-52